sensor_id;sensor_type;location;lat;lon;timestamp;P1;durP1;ratioP1;P2;durP2;ratioP2
52918;SDS011;38793;52.690;6.812;2023-02-28T00:00:02;10.07;;;4.23;;
52918;SDS011;38793;52.690;6.812;2023-02-28T00:02:36;4.80;;;3.85;;
52918;SDS011;38793;52.690;6.812;2023-02-28T00:05:02;8.07;;;4.18;;
52918;SDS011;38793;52.690;6.812;2023-02-28T00:07:28;5.88;;;4.10;;
52918;SDS011;38793;52.690;6.812;2023-02-28T00:09:54;6.63;;;3.85;;
52918;SDS011;38793;52.690;6.812;2023-02-28T00:12:20;8.77;;;5.70;;
52918;SDS011;38793;52.690;6.812;2023-02-28T00:14:46;5.20;;;3.50;;
52918;SDS011;38793;52.690;6.812;2023-02-28T00:17:11;3.93;;;3.37;;
52918;SDS011;38793;52.690;6.812;2023-02-28T00:19:37;4.97;;;3.00;;
52918;SDS011;38793;52.690;6.812;2023-02-28T00:22:02;8.50;;;3.10;;
52918;SDS011;38793;52.690;6.812;2023-02-28T00:24:28;7.27;;;3.30;;
52918;SDS011;38793;52.690;6.812;2023-02-28T00:26:54;5.80;;;3.50;;
52918;SDS011;38793;52.690;6.812;2023-02-28T00:29:19;5.90;;;2.70;;
52918;SDS011;38793;52.690;6.812;2023-02-28T00:31:47;3.70;;;2.78;;
52918;SDS011;38793;52.690;6.812;2023-02-28T00:34:13;8.33;;;3.03;;
52918;SDS011;38793;52.690;6.812;2023-02-28T00:36:39;10.97;;;3.70;;
52918;SDS011;38793;52.690;6.812;2023-02-28T00:39:05;5.25;;;2.72;;
52918;SDS011;38793;52.690;6.812;2023-02-28T00:41:31;7.03;;;3.70;;
52918;SDS011;38793;52.690;6.812;2023-02-28T00:43:56;13.00;;;3.53;;
52918;SDS011;38793;52.690;6.812;2023-02-28T00:46:22;5.10;;;3.13;;
52918;SDS011;38793;52.690;6.812;2023-02-28T00:48:48;6.27;;;3.57;;
52918;SDS011;38793;52.690;6.812;2023-02-28T00:51:13;6.37;;;3.13;;
52918;SDS011;38793;52.690;6.812;2023-02-28T00:53:39;11.37;;;3.57;;
52918;SDS011;38793;52.690;6.812;2023-02-28T00:56:04;9.33;;;4.70;;
52918;SDS011;38793;52.690;6.812;2023-02-28T00:58:30;7.53;;;3.60;;
52918;SDS011;38793;52.690;6.812;2023-02-28T01:00:56;7.33;;;3.93;;
52918;SDS011;38793;52.690;6.812;2023-02-28T01:03:21;7.03;;;3.70;;
52918;SDS011;38793;52.690;6.812;2023-02-28T01:05:47;5.22;;;3.15;;
52918;SDS011;38793;52.690;6.812;2023-02-28T01:08:13;4.93;;;3.53;;
52918;SDS011;38793;52.690;6.812;2023-02-28T01:10:39;6.70;;;3.75;;
52918;SDS011;38793;52.690;6.812;2023-02-28T01:13:05;5.45;;;2.90;;
52918;SDS011;38793;52.690;6.812;2023-02-28T01:15:31;5.67;;;3.40;;
52918;SDS011;38793;52.690;6.812;2023-02-28T01:17:57;6.38;;;3.25;;
52918;SDS011;38793;52.690;6.812;2023-02-28T01:20:23;5.40;;;3.97;;
52918;SDS011;38793;52.690;6.812;2023-02-28T01:22:49;10.45;;;3.88;;
52918;SDS011;38793;52.690;6.812;2023-02-28T01:25:15;4.07;;;2.83;;
52918;SDS011;38793;52.690;6.812;2023-02-28T01:27:40;10.90;;;3.57;;
52918;SDS011;38793;52.690;6.812;2023-02-28T01:30:07;5.03;;;3.33;;
52918;SDS011;38793;52.690;6.812;2023-02-28T01:32:35;8.40;;;3.55;;
52918;SDS011;38793;52.690;6.812;2023-02-28T01:35:00;5.72;;;3.05;;
52918;SDS011;38793;52.690;6.812;2023-02-28T01:37:26;8.53;;;3.57;;
52918;SDS011;38793;52.690;6.812;2023-02-28T01:39:52;5.15;;;3.20;;
52918;SDS011;38793;52.690;6.812;2023-02-28T01:42:17;10.80;;;3.77;;
52918;SDS011;38793;52.690;6.812;2023-02-28T01:47:29;6.22;;;2.78;;
52918;SDS011;38793;52.690;6.812;2023-02-28T01:49:58;5.38;;;3.30;;
52918;SDS011;38793;52.690;6.812;2023-02-28T01:52:25;4.22;;;3.17;;
52918;SDS011;38793;52.690;6.812;2023-02-28T01:54:54;6.18;;;3.28;;
52918;SDS011;38793;52.690;6.812;2023-02-28T01:57:23;4.88;;;3.58;;
52918;SDS011;38793;52.690;6.812;2023-02-28T01:59:52;12.63;;;4.78;;
52918;SDS011;38793;52.690;6.812;2023-02-28T02:02:23;4.57;;;3.42;;
52918;SDS011;38793;52.690;6.812;2023-02-28T02:04:51;5.82;;;4.50;;
52918;SDS011;38793;52.690;6.812;2023-02-28T02:07:31;5.18;;;4.68;;
52918;SDS011;38793;52.690;6.812;2023-02-28T02:10:00;13.35;;;5.90;;
52918;SDS011;38793;52.690;6.812;2023-02-28T02:15:15;8.02;;;5.10;;
52918;SDS011;38793;52.690;6.812;2023-02-28T02:17:51;10.55;;;6.47;;
52918;SDS011;38793;52.690;6.812;2023-02-28T02:23:45;13.50;;;7.28;;
52918;SDS011;38793;52.690;6.812;2023-02-28T02:31:57;9.70;;;6.80;;
52918;SDS011;38793;52.690;6.812;2023-02-28T02:37:40;10.75;;;6.07;;
52918;SDS011;38793;52.690;6.812;2023-02-28T02:40:12;10.80;;;5.85;;
52918;SDS011;38793;52.690;6.812;2023-02-28T02:48:13;7.43;;;5.18;;
52918;SDS011;38793;52.690;6.812;2023-02-28T02:50:45;8.30;;;5.93;;
52918;SDS011;38793;52.690;6.812;2023-02-28T02:53:14;6.40;;;4.95;;
52918;SDS011;38793;52.690;6.812;2023-02-28T02:55:46;9.70;;;6.22;;
52918;SDS011;38793;52.690;6.812;2023-02-28T02:58:17;6.70;;;5.40;;
52918;SDS011;38793;52.690;6.812;2023-02-28T03:00:46;8.05;;;5.57;;
52918;SDS011;38793;52.690;6.812;2023-02-28T03:03:16;8.98;;;5.63;;
52918;SDS011;38793;52.690;6.812;2023-02-28T03:05:49;7.50;;;5.07;;
52918;SDS011;38793;52.690;6.812;2023-02-28T03:08:15;10.90;;;5.57;;
52918;SDS011;38793;52.690;6.812;2023-02-28T03:10:42;7.70;;;4.80;;
52918;SDS011;38793;52.690;6.812;2023-02-28T03:13:21;5.97;;;4.82;;
52918;SDS011;38793;52.690;6.812;2023-02-28T03:15:57;5.20;;;4.38;;
52918;SDS011;38793;52.690;6.812;2023-02-28T03:24:19;10.93;;;6.28;;
52918;SDS011;38793;52.690;6.812;2023-02-28T03:27:07;13.77;;;5.38;;
52918;SDS011;38793;52.690;6.812;2023-02-28T03:29:50;10.38;;;5.63;;
52918;SDS011;38793;52.690;6.812;2023-02-28T03:32:25;10.25;;;5.45;;
52918;SDS011;38793;52.690;6.812;2023-02-28T03:35:40;11.20;;;5.75;;
52918;SDS011;38793;52.690;6.812;2023-02-28T03:37:47;9.02;;;4.90;;
52918;SDS011;38793;52.690;6.812;2023-02-28T03:40:25;9.10;;;5.18;;
52918;SDS011;38793;52.690;6.812;2023-02-28T03:42:58;7.80;;;5.28;;
52918;SDS011;38793;52.690;6.812;2023-02-28T03:45:28;11.77;;;5.35;;
52918;SDS011;38793;52.690;6.812;2023-02-28T03:48:00;7.80;;;4.53;;
52918;SDS011;38793;52.690;6.812;2023-02-28T03:50:42;10.02;;;4.75;;
52918;SDS011;38793;52.690;6.812;2023-02-28T03:53:15;9.45;;;5.70;;
52918;SDS011;38793;52.690;6.812;2023-02-28T03:58:41;11.23;;;5.88;;
52918;SDS011;38793;52.690;6.812;2023-02-28T04:01:10;8.93;;;6.00;;
52918;SDS011;38793;52.690;6.812;2023-02-28T04:03:45;8.23;;;5.03;;
52918;SDS011;38793;52.690;6.812;2023-02-28T04:06:18;11.23;;;6.68;;
52918;SDS011;38793;52.690;6.812;2023-02-28T04:08:46;9.45;;;5.38;;
52918;SDS011;38793;52.690;6.812;2023-02-28T04:13:37;10.07;;;6.03;;
52918;SDS011;38793;52.690;6.812;2023-02-28T04:16:06;11.87;;;5.93;;
52918;SDS011;38793;52.690;6.812;2023-02-28T04:18:37;10.25;;;5.70;;
52918;SDS011;38793;52.690;6.812;2023-02-28T04:23:32;7.82;;;6.63;;
52918;SDS011;38793;52.690;6.812;2023-02-28T04:25:58;8.45;;;6.07;;
52918;SDS011;38793;52.690;6.812;2023-02-28T04:28:23;21.10;;;5.40;;
52918;SDS011;38793;52.690;6.812;2023-02-28T04:33:22;9.07;;;5.45;;
52918;SDS011;38793;52.690;6.812;2023-02-28T04:35:48;5.85;;;5.07;;
52918;SDS011;38793;52.690;6.812;2023-02-28T04:38:22;11.10;;;5.20;;
52918;SDS011;38793;52.690;6.812;2023-02-28T04:40:47;9.97;;;6.20;;
52918;SDS011;38793;52.690;6.812;2023-02-28T04:43:13;6.17;;;4.80;;
52918;SDS011;38793;52.690;6.812;2023-02-28T04:45:39;8.10;;;5.23;;
52918;SDS011;38793;52.690;6.812;2023-02-28T04:48:04;9.37;;;5.90;;
52918;SDS011;38793;52.690;6.812;2023-02-28T04:50:30;8.00;;;4.72;;
52918;SDS011;38793;52.690;6.812;2023-02-28T04:52:56;10.07;;;5.87;;
52918;SDS011;38793;52.690;6.812;2023-02-28T04:55:21;7.50;;;4.35;;
52918;SDS011;38793;52.690;6.812;2023-02-28T04:57:47;9.03;;;5.60;;
52918;SDS011;38793;52.690;6.812;2023-02-28T05:00:13;14.27;;;7.47;;
52918;SDS011;38793;52.690;6.812;2023-02-28T05:02:41;7.95;;;6.07;;
52918;SDS011;38793;52.690;6.812;2023-02-28T05:05:07;9.07;;;5.10;;
52918;SDS011;38793;52.690;6.812;2023-02-28T05:07:33;7.88;;;5.53;;
52918;SDS011;38793;52.690;6.812;2023-02-28T05:09:59;8.40;;;5.07;;
52918;SDS011;38793;52.690;6.812;2023-02-28T05:12:24;6.87;;;5.83;;
52918;SDS011;38793;52.690;6.812;2023-02-28T05:14:50;7.13;;;5.43;;
52918;SDS011;38793;52.690;6.812;2023-02-28T05:17:16;8.23;;;5.43;;
52918;SDS011;38793;52.690;6.812;2023-02-28T05:19:41;9.13;;;5.32;;
52918;SDS011;38793;52.690;6.812;2023-02-28T05:22:12;10.90;;;5.53;;
52918;SDS011;38793;52.690;6.812;2023-02-28T05:24:39;8.27;;;5.60;;
52918;SDS011;38793;52.690;6.812;2023-02-28T05:27:07;10.90;;;5.68;;
52918;SDS011;38793;52.690;6.812;2023-02-28T05:29:33;6.80;;;4.90;;
52918;SDS011;38793;52.690;6.812;2023-02-28T05:31:59;7.90;;;5.22;;
52918;SDS011;38793;52.690;6.812;2023-02-28T05:34:24;9.70;;;5.03;;
52918;SDS011;38793;52.690;6.812;2023-02-28T05:36:50;12.77;;;6.30;;
52918;SDS011;38793;52.690;6.812;2023-02-28T05:39:15;6.43;;;5.87;;
52918;SDS011;38793;52.690;6.812;2023-02-28T05:41:41;13.97;;;5.53;;
52918;SDS011;38793;52.690;6.812;2023-02-28T05:44:08;6.32;;;4.75;;
52918;SDS011;38793;52.690;6.812;2023-02-28T05:46:34;6.07;;;5.47;;
52918;SDS011;38793;52.690;6.812;2023-02-28T05:49:00;7.53;;;4.83;;
52918;SDS011;38793;52.690;6.812;2023-02-28T05:51:25;8.80;;;5.07;;
52918;SDS011;38793;52.690;6.812;2023-02-28T05:53:51;7.77;;;5.43;;
52918;SDS011;38793;52.690;6.812;2023-02-28T05:56:17;6.97;;;4.93;;
52918;SDS011;38793;52.690;6.812;2023-02-28T05:58:42;7.57;;;5.10;;
52918;SDS011;38793;52.690;6.812;2023-02-28T06:01:24;11.83;;;4.77;;
52918;SDS011;38793;52.690;6.812;2023-02-28T06:04:01;7.28;;;6.28;;
52918;SDS011;38793;52.690;6.812;2023-02-28T06:06:28;5.75;;;5.18;;
52918;SDS011;38793;52.690;6.812;2023-02-28T06:11:20;8.88;;;5.55;;
52918;SDS011;38793;52.690;6.812;2023-02-28T06:13:49;6.28;;;5.63;;
52918;SDS011;38793;52.690;6.812;2023-02-28T06:16:14;13.57;;;5.10;;
52918;SDS011;38793;52.690;6.812;2023-02-28T06:18:40;8.27;;;5.07;;
52918;SDS011;38793;52.690;6.812;2023-02-28T06:21:05;10.23;;;5.87;;
52918;SDS011;38793;52.690;6.812;2023-02-28T06:23:31;9.23;;;5.83;;
52918;SDS011;38793;52.690;6.812;2023-02-28T06:25:57;7.50;;;5.45;;
52918;SDS011;38793;52.690;6.812;2023-02-28T06:28:23;7.88;;;6.13;;
52918;SDS011;38793;52.690;6.812;2023-02-28T06:30:50;8.05;;;6.22;;
52918;SDS011;38793;52.690;6.812;2023-02-28T06:33:16;5.93;;;5.38;;
52918;SDS011;38793;52.690;6.812;2023-02-28T06:35:46;9.20;;;5.57;;
52918;SDS011;38793;52.690;6.812;2023-02-28T06:38:15;5.13;;;4.63;;
52918;SDS011;38793;52.690;6.812;2023-02-28T06:40:40;9.38;;;6.53;;
52918;SDS011;38793;52.690;6.812;2023-02-28T06:43:06;6.65;;;5.32;;
52918;SDS011;38793;52.690;6.812;2023-02-28T06:45:32;6.68;;;5.60;;
52918;SDS011;38793;52.690;6.812;2023-02-28T06:47:58;8.00;;;5.63;;
52918;SDS011;38793;52.690;6.812;2023-02-28T06:50:25;8.63;;;6.00;;
52918;SDS011;38793;52.690;6.812;2023-02-28T06:52:50;11.37;;;6.30;;
52918;SDS011;38793;52.690;6.812;2023-02-28T06:55:18;9.35;;;5.63;;
52918;SDS011;38793;52.690;6.812;2023-02-28T06:57:44;9.83;;;6.27;;
52918;SDS011;38793;52.690;6.812;2023-02-28T07:00:10;7.28;;;5.45;;
52918;SDS011;38793;52.690;6.812;2023-02-28T07:05:03;6.10;;;5.50;;
52918;SDS011;38793;52.690;6.812;2023-02-28T07:07:29;17.35;;;8.48;;
52918;SDS011;38793;52.690;6.812;2023-02-28T07:09:55;9.15;;;5.97;;
52918;SDS011;38793;52.690;6.812;2023-02-28T07:12:21;10.10;;;6.18;;
52918;SDS011;38793;52.690;6.812;2023-02-28T07:14:47;10.07;;;6.32;;
52918;SDS011;38793;52.690;6.812;2023-02-28T07:17:12;13.40;;;6.13;;
52918;SDS011;38793;52.690;6.812;2023-02-28T07:19:38;7.70;;;6.13;;
52918;SDS011;38793;52.690;6.812;2023-02-28T07:22:04;6.72;;;5.90;;
52918;SDS011;38793;52.690;6.812;2023-02-28T07:24:31;6.78;;;6.15;;
52918;SDS011;38793;52.690;6.812;2023-02-28T07:26:56;6.13;;;5.53;;
52918;SDS011;38793;52.690;6.812;2023-02-28T07:29:22;6.55;;;5.65;;
52918;SDS011;38793;52.690;6.812;2023-02-28T07:31:48;7.03;;;5.10;;
52918;SDS011;38793;52.690;6.812;2023-02-28T07:34:15;7.53;;;6.28;;
52918;SDS011;38793;52.690;6.812;2023-02-28T07:36:41;6.63;;;5.23;;
52918;SDS011;38793;52.690;6.812;2023-02-28T07:39:06;5.07;;;4.47;;
52918;SDS011;38793;52.690;6.812;2023-02-28T07:41:36;5.88;;;5.10;;
52918;SDS011;38793;52.690;6.812;2023-02-28T07:44:08;6.10;;;5.30;;
52918;SDS011;38793;52.690;6.812;2023-02-28T07:46:34;8.60;;;6.03;;
52918;SDS011;38793;52.690;6.812;2023-02-28T07:49:01;11.07;;;6.70;;
52918;SDS011;38793;52.690;6.812;2023-02-28T07:51:28;8.27;;;6.00;;
52918;SDS011;38793;52.690;6.812;2023-02-28T07:53:54;7.53;;;5.38;;
52918;SDS011;38793;52.690;6.812;2023-02-28T07:56:20;9.20;;;6.90;;
52918;SDS011;38793;52.690;6.812;2023-02-28T07:58:45;12.07;;;7.30;;
52918;SDS011;38793;52.690;6.812;2023-02-28T08:01:11;8.70;;;6.10;;
52918;SDS011;38793;52.690;6.812;2023-02-28T08:03:38;12.00;;;7.25;;
52918;SDS011;38793;52.690;6.812;2023-02-28T08:06:04;7.22;;;6.32;;
52918;SDS011;38793;52.690;6.812;2023-02-28T08:08:32;14.70;;;7.22;;
52918;SDS011;38793;52.690;6.812;2023-02-28T08:11:00;12.20;;;7.47;;
52918;SDS011;38793;52.690;6.812;2023-02-28T08:13:28;13.38;;;6.45;;
52918;SDS011;38793;52.690;6.812;2023-02-28T08:15:55;13.55;;;7.45;;
52918;SDS011;38793;52.690;6.812;2023-02-28T08:18:21;8.43;;;5.90;;
52918;SDS011;38793;52.690;6.812;2023-02-28T08:20:47;9.07;;;6.80;;
52918;SDS011;38793;52.690;6.812;2023-02-28T08:23:12;10.07;;;6.73;;
52918;SDS011;38793;52.690;6.812;2023-02-28T08:25:38;14.05;;;6.85;;
52918;SDS011;38793;52.690;6.812;2023-02-28T08:28:04;10.07;;;6.25;;
52918;SDS011;38793;52.690;6.812;2023-02-28T08:30:30;10.67;;;5.93;;
52918;SDS011;38793;52.690;6.812;2023-02-28T08:32:55;17.83;;;6.40;;
52918;SDS011;38793;52.690;6.812;2023-02-28T08:35:21;11.50;;;6.23;;
52918;SDS011;38793;52.690;6.812;2023-02-28T08:37:47;10.77;;;5.70;;
52918;SDS011;38793;52.690;6.812;2023-02-28T08:40:14;8.20;;;4.82;;
52918;SDS011;38793;52.690;6.812;2023-02-28T08:42:43;8.07;;;5.60;;
52918;SDS011;38793;52.690;6.812;2023-02-28T08:45:10;57.35;;;9.10;;
52918;SDS011;38793;52.690;6.812;2023-02-28T08:47:36;27.48;;;6.95;;
52918;SDS011;38793;52.690;6.812;2023-02-28T08:50:02;24.47;;;5.60;;
52918;SDS011;38793;52.690;6.812;2023-02-28T08:52:28;15.98;;;4.43;;
52918;SDS011;38793;52.690;6.812;2023-02-28T08:54:54;9.13;;;5.13;;
52918;SDS011;38793;52.690;6.812;2023-02-28T08:57:19;5.53;;;2.27;;
52918;SDS011;38793;52.690;6.812;2023-02-28T08:59:45;4.87;;;2.43;;
52918;SDS011;38793;52.690;6.812;2023-02-28T09:02:14;3.70;;;2.50;;
52918;SDS011;38793;52.690;6.812;2023-02-28T09:04:40;7.50;;;2.17;;
52918;SDS011;38793;52.690;6.812;2023-02-28T09:07:06;7.65;;;2.40;;
52918;SDS011;38793;52.690;6.812;2023-02-28T09:09:32;3.45;;;1.55;;
52918;SDS011;38793;52.690;6.812;2023-02-28T09:11:58;24.40;;;2.63;;
52918;SDS011;38793;52.690;6.812;2023-02-28T09:14:23;2.07;;;1.13;;
52918;SDS011;38793;52.690;6.812;2023-02-28T09:16:49;3.73;;;0.83;;
52918;SDS011;38793;52.690;6.812;2023-02-28T09:19:14;2.37;;;0.90;;
52918;SDS011;38793;52.690;6.812;2023-02-28T09:21:40;3.13;;;1.00;;
52918;SDS011;38793;52.690;6.812;2023-02-28T09:24:07;3.80;;;0.98;;
52918;SDS011;38793;52.690;6.812;2023-02-28T09:26:33;2.22;;;0.70;;
52918;SDS011;38793;52.690;6.812;2023-02-28T09:28:59;2.38;;;1.00;;
52918;SDS011;38793;52.690;6.812;2023-02-28T09:31:26;2.50;;;0.70;;
52918;SDS011;38793;52.690;6.812;2023-02-28T09:33:54;4.65;;;0.90;;
52918;SDS011;38793;52.690;6.812;2023-02-28T09:36:22;1.30;;;1.05;;
52918;SDS011;38793;52.690;6.812;2023-02-28T09:38:48;3.03;;;0.90;;
52918;SDS011;38793;52.690;6.812;2023-02-28T09:43:51;4.10;;;1.67;;
52918;SDS011;38793;52.690;6.812;2023-02-28T09:49:16;4.10;;;0.80;;
52918;SDS011;38793;52.690;6.812;2023-02-28T09:54:21;5.93;;;1.13;;
52918;SDS011;38793;52.690;6.812;2023-02-28T09:56:50;3.08;;;0.70;;
52918;SDS011;38793;52.690;6.812;2023-02-28T09:59:41;2.10;;;1.58;;
52918;SDS011;38793;52.690;6.812;2023-02-28T10:04:54;1.30;;;0.90;;
52918;SDS011;38793;52.690;6.812;2023-02-28T10:10:07;3.63;;;0.85;;
52918;SDS011;38793;52.690;6.812;2023-02-28T10:12:46;2.05;;;0.60;;
52918;SDS011;38793;52.690;6.812;2023-02-28T10:15:13;3.17;;;1.40;;
52918;SDS011;38793;52.690;6.812;2023-02-28T10:17:41;2.42;;;1.10;;
52918;SDS011;38793;52.690;6.812;2023-02-28T10:20:11;3.65;;;1.25;;
52918;SDS011;38793;52.690;6.812;2023-02-28T10:22:57;1.83;;;0.60;;
52918;SDS011;38793;52.690;6.812;2023-02-28T10:25:42;2.72;;;0.60;;
52918;SDS011;38793;52.690;6.812;2023-02-28T10:28:16;2.67;;;0.60;;
52918;SDS011;38793;52.690;6.812;2023-02-28T10:30:49;3.35;;;0.73;;
52918;SDS011;38793;52.690;6.812;2023-02-28T10:33:17;2.83;;;0.57;;
52918;SDS011;38793;52.690;6.812;2023-02-28T10:35:44;6.15;;;0.98;;
52918;SDS011;38793;52.690;6.812;2023-02-28T10:38:15;1.20;;;0.60;;
52918;SDS011;38793;52.690;6.812;2023-02-28T10:40:42;2.60;;;1.05;;
52918;SDS011;38793;52.690;6.812;2023-02-28T10:45:52;1.00;;;0.70;;
52918;SDS011;38793;52.690;6.812;2023-02-28T10:55:59;1.52;;;0.40;;
52918;SDS011;38793;52.690;6.812;2023-02-28T11:01:33;1.00;;;0.40;;
52918;SDS011;38793;52.690;6.812;2023-02-28T11:04:00;0.82;;;0.52;;
52918;SDS011;38793;52.690;6.812;2023-02-28T11:06:29;1.23;;;0.50;;
52918;SDS011;38793;52.690;6.812;2023-02-28T11:09:01;1.48;;;0.70;;
52918;SDS011;38793;52.690;6.812;2023-02-28T11:11:31;0.95;;;0.47;;
52918;SDS011;38793;52.690;6.812;2023-02-28T11:16:42;1.38;;;0.50;;
52918;SDS011;38793;52.690;6.812;2023-02-28T11:19:14;1.40;;;0.70;;
52918;SDS011;38793;52.690;6.812;2023-02-28T11:21:56;4.65;;;0.40;;
52918;SDS011;38793;52.690;6.812;2023-02-28T11:24:28;3.20;;;0.87;;
52918;SDS011;38793;52.690;6.812;2023-02-28T11:30:00;1.83;;;0.57;;
52918;SDS011;38793;52.690;6.812;2023-02-28T11:32:26;1.90;;;0.75;;
52918;SDS011;38793;52.690;6.812;2023-02-28T11:35:10;1.08;;;0.68;;
52918;SDS011;38793;52.690;6.812;2023-02-28T11:37:42;3.65;;;1.20;;
52918;SDS011;38793;52.690;6.812;2023-02-28T11:40:14;0.88;;;0.60;;
52918;SDS011;38793;52.690;6.812;2023-02-28T11:48:01;1.67;;;0.75;;
52918;SDS011;38793;52.690;6.812;2023-02-28T11:53:37;1.52;;;0.55;;
52918;SDS011;38793;52.690;6.812;2023-02-28T11:59:03;1.52;;;0.60;;
52918;SDS011;38793;52.690;6.812;2023-02-28T12:04:04;5.22;;;1.13;;
52918;SDS011;38793;52.690;6.812;2023-02-28T12:06:45;0.98;;;0.60;;
52918;SDS011;38793;52.690;6.812;2023-02-28T12:09:28;1.98;;;0.85;;
52918;SDS011;38793;52.690;6.812;2023-02-28T12:12:26;1.98;;;0.80;;
52918;SDS011;38793;52.690;6.812;2023-02-28T12:21:24;1.80;;;0.65;;
52918;SDS011;38793;52.690;6.812;2023-02-28T12:28:48;3.63;;;1.02;;
52918;SDS011;38793;52.690;6.812;2023-02-28T12:31:19;1.77;;;0.80;;
52918;SDS011;38793;52.690;6.812;2023-02-28T12:33:53;5.45;;;1.08;;
52918;SDS011;38793;52.690;6.812;2023-02-28T12:36:30;1.80;;;0.90;;
52918;SDS011;38793;52.690;6.812;2023-02-28T12:39:02;1.00;;;0.77;;
52918;SDS011;38793;52.690;6.812;2023-02-28T12:41:42;1.60;;;0.50;;
52918;SDS011;38793;52.690;6.812;2023-02-28T12:46:42;1.17;;;0.68;;
52918;SDS011;38793;52.690;6.812;2023-02-28T12:49:16;2.38;;;0.70;;
52918;SDS011;38793;52.690;6.812;2023-02-28T12:51:46;2.50;;;0.90;;
52918;SDS011;38793;52.690;6.812;2023-02-28T12:54:15;1.48;;;1.10;;
52918;SDS011;38793;52.690;6.812;2023-02-28T12:59:37;2.55;;;0.90;;
52918;SDS011;38793;52.690;6.812;2023-02-28T13:02:18;2.85;;;1.27;;
52918;SDS011;38793;52.690;6.812;2023-02-28T13:07:45;1.10;;;0.80;;
52918;SDS011;38793;52.690;6.812;2023-02-28T13:13:16;3.50;;;0.90;;
52918;SDS011;38793;52.690;6.812;2023-02-28T13:18:28;3.25;;;1.23;;
52918;SDS011;38793;52.690;6.812;2023-02-28T13:20:55;1.48;;;0.60;;
52918;SDS011;38793;52.690;6.812;2023-02-28T13:23:40;2.13;;;1.40;;
52918;SDS011;38793;52.690;6.812;2023-02-28T13:26:06;5.07;;;1.17;;
52918;SDS011;38793;52.690;6.812;2023-02-28T13:31:25;2.50;;;0.90;;
52918;SDS011;38793;52.690;6.812;2023-02-28T13:38:47;1.80;;;0.90;;
52918;SDS011;38793;52.690;6.812;2023-02-28T13:46:30;1.65;;;0.88;;
52918;SDS011;38793;52.690;6.812;2023-02-28T13:49:11;2.13;;;0.95;;
52918;SDS011;38793;52.690;6.812;2023-02-28T13:51:48;1.17;;;0.70;;
52918;SDS011;38793;52.690;6.812;2023-02-28T14:02:41;1.95;;;0.90;;
52918;SDS011;38793;52.690;6.812;2023-02-28T14:05:38;0.70;;;0.40;;
52918;SDS011;38793;52.690;6.812;2023-02-28T14:08:05;2.10;;;0.60;;
52918;SDS011;38793;52.690;6.812;2023-02-28T14:10:33;3.10;;;0.93;;
52918;SDS011;38793;52.690;6.812;2023-02-28T14:13:11;1.25;;;0.73;;
52918;SDS011;38793;52.690;6.812;2023-02-28T14:18:24;1.38;;;0.90;;
52918;SDS011;38793;52.690;6.812;2023-02-28T14:23:41;2.45;;;0.82;;
52918;SDS011;38793;52.690;6.812;2023-02-28T14:32:05;2.30;;;0.50;;
52918;SDS011;38793;52.690;6.812;2023-02-28T14:34:52;0.90;;;0.60;;
52918;SDS011;38793;52.690;6.812;2023-02-28T14:37:26;1.50;;;0.68;;
52918;SDS011;38793;52.690;6.812;2023-02-28T14:39:57;6.72;;;0.70;;
52918;SDS011;38793;52.690;6.812;2023-02-28T14:42:27;2.22;;;0.70;;
52918;SDS011;38793;52.690;6.812;2023-02-28T14:45:00;1.60;;;0.55;;
52918;SDS011;38793;52.690;6.812;2023-02-28T14:47:30;1.50;;;0.85;;
52918;SDS011;38793;52.690;6.812;2023-02-28T14:49:58;1.63;;;0.57;;
52918;SDS011;38793;52.690;6.812;2023-02-28T14:52:29;1.83;;;0.70;;
52918;SDS011;38793;52.690;6.812;2023-02-28T14:54:58;2.55;;;0.50;;
52918;SDS011;38793;52.690;6.812;2023-02-28T14:57:32;1.02;;;0.50;;
52918;SDS011;38793;52.690;6.812;2023-02-28T15:02:37;2.03;;;0.82;;
52918;SDS011;38793;52.690;6.812;2023-02-28T15:07:42;3.88;;;0.80;;
52918;SDS011;38793;52.690;6.812;2023-02-28T15:15:17;3.60;;;0.85;;
52918;SDS011;38793;52.690;6.812;2023-02-28T15:20:11;3.03;;;0.73;;
52918;SDS011;38793;52.690;6.812;2023-02-28T15:22:38;1.27;;;0.90;;
52918;SDS011;38793;52.690;6.812;2023-02-28T15:25:04;3.58;;;0.80;;
52918;SDS011;38793;52.690;6.812;2023-02-28T15:27:33;2.83;;;0.63;;
52918;SDS011;38793;52.690;6.812;2023-02-28T15:30:08;2.85;;;0.95;;
52918;SDS011;38793;52.690;6.812;2023-02-28T15:32:41;3.22;;;1.60;;
52918;SDS011;38793;52.690;6.812;2023-02-28T15:38:03;2.63;;;0.60;;
52918;SDS011;38793;52.690;6.812;2023-02-28T15:48:42;2.03;;;1.33;;
52918;SDS011;38793;52.690;6.812;2023-02-28T15:51:20;0.98;;;0.60;;
52918;SDS011;38793;52.690;6.812;2023-02-28T15:53:51;2.58;;;0.93;;
52918;SDS011;38793;52.690;6.812;2023-02-28T15:58:55;1.60;;;0.70;;
52918;SDS011;38793;52.690;6.812;2023-02-28T16:01:29;1.10;;;0.60;;
52918;SDS011;38793;52.690;6.812;2023-02-28T16:03:59;2.38;;;0.68;;
52918;SDS011;38793;52.690;6.812;2023-02-28T16:06:34;1.50;;;0.90;;
52918;SDS011;38793;52.690;6.812;2023-02-28T16:09:12;3.60;;;0.93;;
52918;SDS011;38793;52.690;6.812;2023-02-28T16:11:43;3.55;;;0.50;;
52918;SDS011;38793;52.690;6.812;2023-02-28T16:14:13;1.63;;;0.52;;
52918;SDS011;38793;52.690;6.812;2023-02-28T16:16:49;3.03;;;0.60;;
52918;SDS011;38793;52.690;6.812;2023-02-28T16:19:17;2.60;;;1.05;;
52918;SDS011;38793;52.690;6.812;2023-02-28T16:24:09;1.90;;;0.60;;
52918;SDS011;38793;52.690;6.812;2023-02-28T16:26:35;1.90;;;0.57;;
52918;SDS011;38793;52.690;6.812;2023-02-28T16:29:04;1.00;;;0.60;;
52918;SDS011;38793;52.690;6.812;2023-02-28T16:31:30;2.00;;;0.70;;
52918;SDS011;38793;52.690;6.812;2023-02-28T16:34:00;1.52;;;0.50;;
52918;SDS011;38793;52.690;6.812;2023-02-28T16:36:25;1.27;;;0.70;;
52918;SDS011;38793;52.690;6.812;2023-02-28T16:38:51;3.40;;;0.70;;
52918;SDS011;38793;52.690;6.812;2023-02-28T16:41:18;4.80;;;1.10;;
52918;SDS011;38793;52.690;6.812;2023-02-28T16:43:47;3.28;;;0.70;;
52918;SDS011;38793;52.690;6.812;2023-02-28T16:46:14;1.95;;;0.90;;
52918;SDS011;38793;52.690;6.812;2023-02-28T16:48:41;2.88;;;0.98;;
52918;SDS011;38793;52.690;6.812;2023-02-28T16:51:11;2.63;;;1.25;;
52918;SDS011;38793;52.690;6.812;2023-02-28T16:53:38;2.17;;;0.93;;
52918;SDS011;38793;52.690;6.812;2023-02-28T16:56:04;3.25;;;1.27;;
52918;SDS011;38793;52.690;6.812;2023-02-28T16:58:32;2.30;;;1.20;;
52918;SDS011;38793;52.690;6.812;2023-02-28T17:01:00;4.82;;;1.20;;
52918;SDS011;38793;52.690;6.812;2023-02-28T17:03:27;1.98;;;0.90;;
52918;SDS011;38793;52.690;6.812;2023-02-28T17:05:53;96.93;;;5.85;;
52918;SDS011;38793;52.690;6.812;2023-02-28T17:08:19;2.88;;;1.15;;
52918;SDS011;38793;52.690;6.812;2023-02-28T17:10:44;13.77;;;1.47;;
52918;SDS011;38793;52.690;6.812;2023-02-28T17:13:10;1.67;;;1.42;;
52918;SDS011;38793;52.690;6.812;2023-02-28T17:15:36;4.22;;;1.40;;
52918;SDS011;38793;52.690;6.812;2023-02-28T17:20:29;4.32;;;1.10;;
52918;SDS011;38793;52.690;6.812;2023-02-28T17:22:55;12.88;;;1.50;;
52918;SDS011;38793;52.690;6.812;2023-02-28T17:25:21;4.95;;;0.98;;
52918;SDS011;38793;52.690;6.812;2023-02-28T17:27:48;3.30;;;1.35;;
52918;SDS011;38793;52.690;6.812;2023-02-28T17:30:18;2.67;;;1.30;;
52918;SDS011;38793;52.690;6.812;2023-02-28T17:32:49;3.08;;;1.50;;
52918;SDS011;38793;52.690;6.812;2023-02-28T17:35:14;2.63;;;1.73;;
52918;SDS011;38793;52.690;6.812;2023-02-28T17:37:40;6.18;;;1.58;;
52918;SDS011;38793;52.690;6.812;2023-02-28T17:40:06;3.38;;;2.05;;
52918;SDS011;38793;52.690;6.812;2023-02-28T17:42:43;1.67;;;1.25;;
52918;SDS011;38793;52.690;6.812;2023-02-28T17:45:09;3.80;;;1.83;;
52918;SDS011;38793;52.690;6.812;2023-02-28T17:47:35;2.28;;;1.77;;
52918;SDS011;38793;52.690;6.812;2023-02-28T17:50:01;3.35;;;1.67;;
52918;SDS011;38793;52.690;6.812;2023-02-28T17:52:27;1.70;;;1.60;;
52918;SDS011;38793;52.690;6.812;2023-02-28T17:54:54;2.90;;;1.83;;